デンバー の空港の天気 - METARとTAF

デンバー国際空港 ( KDEN / DEN ) - アメリカ コロラド州デンバー
飛行場実況気象(Metar)
観測時間01/22 20:53 MST (01/23 03:53 UTC)
風向・風速南南東 6m/s
視程10km以上
天気現象
全天の8割程度の雲 雲底高度 5490m
気温-5.6℃
湿度50%
気圧1022hPa
METARKDEN 230353Z 16011KT 10SM BKN180 M06/M14 A3007 RMK AO2 SLP220 T10561144
過去の天気等 Google飛行場航空写真 Wunderground天気予報

過去48時間のMETAR

飛行場予報(TAF)
発表時間: 1/22 20:25 MST (1/23 03:25 UTC)
予報対象時間: 22日20時 MST ~ 23日23時 MST
風向・風速南南東 4m/s
視程10km以上
少しの雲 雲底高度 4,270m
全天の8割程度の雲 雲底高度 6,710m
22日23時 MST から
風向・風速南南西 5m/s
視程10km以上
全天の4割程度の雲 雲底高度 3,660m
全天の8割程度の雲 雲底高度 6,710m
23日7時 MST から
風向・風速不定 3m/s
視程10km以上
少しの雲 雲底高度 2,130m
全天の4割程度の雲 雲底高度 3,660m
全天の8割程度の雲 雲底高度 6,710m
23日12時 MST から
風向・風速東 4m/s
視程10km以上
少しの雲 雲底高度 3,050m
全天の4割程度の雲 雲底高度 6,710m
23日18時 MST から
風向・風速南 3m/s
視程10km以上
少しの雲 雲底高度 3,660m
KDEN 230325Z 2303/2406 15008KT P6SM FEW140 BKN220
FM230600 20009KT P6SM SCT120 BKN220
FM231400 VRB05KT P6SM FEW070 SCT120 BKN220
FM231900 08007KT P6SM FEW100 SCT220
FM240100 19006KT P6SM FEW120